Kilgore, Idaho
Current Conditions -  °F | °C
As of 11:53 PM on Sunday 23 Nov 2014 (Local Time) from KRXE Reporting Station
Overcast Overcast  
Wind Chill: 18°   Ceiling: 7500
Heat Index: 30°   Visibility: 10mi
Dew Point: 24°   Wind: 17mph
Humidity: 79%   Direction: 220°SW
Pressure: 30.02"   Gusts: 23mph
Location:  44.2396°N, 112.579°W
Report Text: KRXE 240653Z AUTO 22015G20KT 10SM BKN075 OVC090 M01/M04 A3002 RMK AO2 SLP189 T10111044 400281056
Loading
Personal Weather Stations






























Interactive Weather Map New forecast layout! Learn more

10-Day Weather Forecast

Advertisements
Track Severe Weather on mobile